createdAt,value
2023-01-28T00:01:31.446Z,96.68
2023-01-28T00:04:04.403Z,96.57
2023-01-28T00:09:11.955Z,97.30
2023-01-28T00:11:43.383Z,97.93
2023-01-28T00:14:14.372Z,97.93
2023-01-28T00:16:45.995Z,97.85
2023-01-28T00:19:16.474Z,97.70
2023-01-28T00:21:46.961Z,97.22
2023-01-28T00:24:17.520Z,97.22
2023-01-28T00:26:49.335Z,98.57
2023-01-28T00:29:19.897Z,98.58
2023-01-28T00:31:50.215Z,98.58
2023-01-28T00:34:21.589Z,100.00
2023-01-28T00:36:52.328Z,99.86
2023-01-28T00:39:23.162Z,99.63
2023-01-28T00:41:54.853Z,99.41
2023-01-28T00:44:26.723Z,100.00
2023-01-28T00:46:57.685Z,99.57
2023-01-28T00:49:27.960Z,99.50
2023-01-28T00:51:59.867Z,99.50
2023-01-28T00:54:30.782Z,99.36
2023-01-28T00:57:01.167Z,99.36
2023-01-28T00:59:32.085Z,99.50
2023-01-28T01:02:02.535Z,99.27
2023-01-28T01:04:33.002Z,98.98
2023-01-28T01:07:03.558Z,98.88
2023-01-28T01:09:34.042Z,98.83
2023-01-28T01:12:04.452Z,98.40
2023-01-28T01:14:35.041Z,98.00
2023-01-28T01:17:05.527Z,98.48
2023-01-28T01:19:37.070Z,97.99
2023-01-28T01:22:07.382Z,97.73
2023-01-28T01:24:38.477Z,98.08
2023-01-28T01:27:10.050Z,98.08
2023-01-28T01:29:42.249Z,96.38
2023-01-28T01:32:12.685Z,97.45
2023-01-28T01:34:45.273Z,97.47
2023-01-28T01:37:15.709Z,97.17
2023-01-28T01:39:46.533Z,97.20
2023-01-28T01:42:17.002Z,96.76
2023-01-28T01:44:59.270Z,97.09
2023-01-28T01:48:01.740Z,96.57
2023-01-28T01:50:35.592Z,95.79
2023-01-28T01:53:16.052Z,95.79
2023-01-28T01:55:49.301Z,96.72
2023-01-28T01:58:27.003Z,96.26
2023-01-28T02:01:02.570Z,96.35
2023-01-28T02:03:36.056Z,97.27
2023-01-28T02:06:07.244Z,96.75
2023-01-28T02:08:39.469Z,96.93
2023-01-28T02:11:12.134Z,98.23
2023-01-28T02:13:45.826Z,97.12
2023-01-28T02:16:17.104Z,97.56
2023-01-28T02:18:47.458Z,97.32
2023-01-28T02:21:46.564Z,96.79
2023-01-28T02:24:41.197Z,96.70
2023-01-28T02:27:37.636Z,96.63
2023-01-28T02:30:32.197Z,96.74
2023-01-28T02:33:08.154Z,96.19
2023-01-28T02:35:41.709Z,95.23
2023-01-28T02:38:18.244Z,96.72
2023-01-28T02:40:52.258Z,96.48
2023-01-28T02:43:47.367Z,95.76
2023-01-28T02:46:29.757Z,95.76
2023-01-28T02:49:06.198Z,95.82
2023-01-28T02:51:45.807Z,96.11
2023-01-28T02:54:35.195Z,96.11
2023-01-28T02:57:11.143Z,96.01
2023-01-28T02:59:45.023Z,96.09
2023-01-28T03:05:43.462Z,95.48
2023-01-28T03:08:14.531Z,96.11
2023-01-28T03:10:45.297Z,95.18
2023-01-28T03:13:16.958Z,95.26
2023-01-28T03:15:55.696Z,95.94
2023-01-28T03:21:32.991Z,93.90
2023-01-28T03:24:12.320Z,94.22
2023-01-28T03:26:48.384Z,93.66
2023-01-28T03:29:21.279Z,92.76
2023-01-28T03:31:53.151Z,94.66
2023-01-28T03:34:25.829Z,95.02
2023-01-28T03:36:57.835Z,95.07
2023-01-28T03:39:30.395Z,95.13
2023-01-28T03:42:07.006Z,95.13
2023-01-28T03:44:37.844Z,95.06
2023-01-28T03:47:08.377Z,95.64
2023-01-28T03:49:43.878Z,95.55
2023-01-28T03:52:14.249Z,95.99
2023-01-28T03:54:46.028Z,96.25
2023-01-28T03:57:17.619Z,96.50
2023-01-28T03:59:49.010Z,96.87
2023-01-28T04:02:22.609Z,96.22
2023-01-28T04:04:53.078Z,96.15
2023-01-28T08:55:46.703Z,88.69
2023-01-28T08:58:22.527Z,86.37
2023-01-28T09:01:45.057Z,87.34
2023-01-28T09:03:37.605Z,86.68
2023-01-28T09:06:15.012Z,85.74
2023-01-28T09:09:23.185Z,85.95
2023-01-28T09:11:46.067Z,85.95
2023-01-28T09:14:18.366Z,87.38
2023-01-28T09:16:49.049Z,85.71
2023-01-28T09:19:24.352Z,84.01
2023-01-28T09:21:56.453Z,84.01
2023-01-28T09:24:27.366Z,84.60
2023-01-28T09:27:07.587Z,85.08
2023-01-28T09:29:42.592Z,83.00
2023-01-28T09:32:14.699Z,83.00
2023-01-28T09:35:03.501Z,82.75
2023-01-28T09:37:34.095Z,84.72
2023-01-28T09:40:05.439Z,86.03
2023-01-28T09:42:45.402Z,85.39
2023-01-28T09:45:26.529Z,83.57
2023-01-28T09:48:16.932Z,85.96
2023-01-28T09:51:07.111Z,86.40
2023-01-28T09:53:40.032Z,86.40
2023-01-28T09:56:30.467Z,84.58
2023-01-28T09:59:05.927Z,85.90
2023-01-28T10:02:03.788Z,86.30
2023-01-28T10:04:57.648Z,85.79
2023-01-28T10:07:36.796Z,85.79
2023-01-28T10:10:24.103Z,87.10
2023-01-28T10:13:08.667Z,89.00
2023-01-28T10:15:48.282Z,87.60
2023-01-28T10:18:22.995Z,88.63
2023-01-28T10:21:14.585Z,88.63
2023-01-28T10:24:00.405Z,88.52
2023-01-28T10:27:00.725Z,87.61
2023-01-28T10:32:38.116Z,88.63
2023-01-28T10:35:09.071Z,87.78
2023-01-28T10:37:45.649Z,89.69
2023-01-28T10:40:19.673Z,89.69
2023-01-28T10:42:51.272Z,90.53
2023-01-28T10:48:17.357Z,88.51
2023-01-28T10:51:01.489Z,86.42
2023-01-28T10:53:39.262Z,83.69
2023-01-28T10:56:22.044Z,83.69
2023-01-28T10:59:08.665Z,84.94
2023-01-28T11:01:54.866Z,84.94
2023-01-28T11:04:29.866Z,84.87
2023-01-28T11:07:04.981Z,82.73
2023-01-28T11:09:37.716Z,79.87
2023-01-28T11:12:18.260Z,81.86
2023-01-28T11:14:56.294Z,80.01
2023-01-28T11:17:31.122Z,79.51
2023-01-28T11:20:20.702Z,78.73
2023-01-28T11:22:53.085Z,80.56
2023-01-28T11:25:32.195Z,79.76
2023-01-28T11:28:08.976Z,79.76
2023-01-28T11:31:10.660Z,79.00
2023-01-28T11:33:56.517Z,77.21
2023-01-28T11:36:39.576Z,77.21
2023-01-28T11:39:24.811Z,74.81
2023-01-28T11:42:07.741Z,76.30
2023-01-28T11:44:43.420Z,76.45
2023-01-28T11:47:37.101Z,76.45
2023-01-28T11:50:26.957Z,78.98
2023-01-28T11:53:06.893Z,79.36
2023-01-28T11:56:00.167Z,79.88
2023-01-28T11:58:47.994Z,79.93
2023-01-28T12:01:44.994Z,82.09
2023-01-28T12:04:43.902Z,82.09
2023-01-28T12:10:37.347Z,83.39
2023-01-28T12:13:34.647Z,83.45
2023-01-28T12:16:33.558Z,83.58
2023-01-28T12:19:44.125Z,83.36
2023-01-28T12:22:53.901Z,82.93
2023-01-28T12:25:41.824Z,82.90
2023-01-28T12:31:52.773Z,81.00
2023-01-28T12:34:29.378Z,82.78
2023-01-28T12:37:23.715Z,81.72
2023-01-28T12:40:18.886Z,80.72
2023-01-28T12:43:02.831Z,80.61
2023-01-28T12:45:39.737Z,80.61
2023-01-28T12:48:20.051Z,80.85
2023-01-28T12:50:59.369Z,80.35
2023-01-28T12:53:41.839Z,80.35
2023-01-28T12:56:38.435Z,80.13
2023-01-28T12:59:23.765Z,79.79
2023-01-28T13:02:15.343Z,79.79
2023-01-28T13:05:04.234Z,81.58
2023-01-28T13:07:49.918Z,82.10
2023-01-28T13:10:34.517Z,81.43
2023-01-28T13:13:06.862Z,81.79
2023-01-28T13:15:40.405Z,82.98
2023-01-28T13:24:32.337Z,84.65
2023-01-28T13:30:07.191Z,85.79
2023-01-28T13:32:38.207Z,85.79
2023-01-28T13:35:11.458Z,84.80
2023-01-28T17:15:57.971Z,94.76
2023-01-28T17:18:30.068Z,94.38
2023-01-28T17:21:06.035Z,94.38
2023-01-28T17:23:38.376Z,95.32
2023-01-28T17:26:12.819Z,95.32
2023-01-28T17:28:44.431Z,96.21
2023-01-28T17:31:15.322Z,96.63
2023-01-28T17:33:45.886Z,96.63
2023-01-28T17:36:17.076Z,96.57
2023-01-28T17:38:49.272Z,96.57
2023-01-28T17:41:29.313Z,94.98
2023-01-28T17:44:05.229Z,95.15
2023-01-28T17:46:35.970Z,95.15
2023-01-28T17:49:12.697Z,96.61
2023-01-28T17:51:43.134Z,95.14
2023-01-28T17:54:17.814Z,95.41
2023-01-28T17:56:48.202Z,95.54
2023-01-28T17:59:18.660Z,96.02
2023-01-28T18:01:52.807Z,95.93
2023-01-28T18:04:23.331Z,94.13
2023-01-28T18:06:54.872Z,93.96
2023-01-28T18:09:25.187Z,93.96
2023-01-28T18:11:56.896Z,96.49
2023-01-28T18:14:30.051Z,96.67
2023-01-28T18:17:01.485Z,96.35
2023-01-28T18:19:31.836Z,96.35
2023-01-28T18:22:04.599Z,95.56
2023-01-28T18:24:35.153Z,94.83
2023-01-28T18:27:07.390Z,94.83
2023-01-28T18:32:43.550Z,94.28
2023-01-28T18:35:12.437Z,94.28
2023-01-28T18:37:42.779Z,93.98
2023-01-28T18:40:19.281Z,95.05
2023-01-28T18:42:49.699Z,95.05
2023-01-28T18:45:22.409Z,94.66
2023-01-28T18:47:52.801Z,94.83
2023-01-28T18:50:23.245Z,94.83
2023-01-28T18:52:54.294Z,92.81
2023-01-28T18:55:24.652Z,92.81
2023-01-28T18:57:56.959Z,94.23
2023-01-28T19:00:28.704Z,94.35
2023-01-28T19:02:59.302Z,93.82
2023-01-28T19:05:31.052Z,93.94
2023-01-28T19:08:01.384Z,96.28
2023-01-28T19:10:31.822Z,95.47
2023-01-28T19:13:02.302Z,94.37
2023-01-28T19:15:33.236Z,96.34
2023-01-28T19:18:03.894Z,96.64
2023-01-28T19:20:36.505Z,94.45
2023-01-28T19:23:07.076Z,95.45
2023-01-28T19:25:42.124Z,95.62
2023-01-28T19:28:25.976Z,93.77
2023-01-28T19:34:17.570Z,94.30
2023-01-28T19:36:57.649Z,94.30
2023-01-28T19:39:37.865Z,94.70
2023-01-28T19:58:36.817Z,93.79
2023-01-28T20:01:10.028Z,91.93
2023-01-28T20:03:40.832Z,92.43
2023-01-28T20:06:25.992Z,92.43
2023-01-28T20:09:02.602Z,92.00
2023-01-28T20:14:56.772Z,92.34
2023-01-28T20:17:09.856Z,90.98
2023-01-28T20:19:47.217Z,91.70
2023-01-28T20:22:27.114Z,91.16
2023-01-28T20:25:18.638Z,91.33
2023-01-28T20:27:53.082Z,91.69
2023-01-28T20:30:28.219Z,92.10
2023-01-28T20:32:59.825Z,91.34
2023-01-28T20:35:30.652Z,92.68
2023-01-28T20:38:00.980Z,92.56
2023-01-28T20:40:46.578Z,92.56
2023-01-28T20:43:23.577Z,94.30
2023-01-28T20:45:54.039Z,93.20
2023-01-28T20:48:31.240Z,92.27
2023-01-28T20:51:07.427Z,92.96
2023-01-28T20:53:38.330Z,92.42
2023-01-28T20:56:14.134Z,93.00
2023-01-28T20:58:45.713Z,93.15
2023-01-28T21:01:19.995Z,93.15
2023-01-28T21:03:52.882Z,91.91
2023-01-28T21:06:27.596Z,92.15
2023-01-28T21:09:05.435Z,92.48
2023-01-28T21:14:31.935Z,91.89
2023-01-28T21:17:04.676Z,91.89
2023-01-28T21:19:40.128Z,92.41
2023-01-28T21:22:11.159Z,92.48
2023-01-28T21:24:44.315Z,92.48
2023-01-28T21:27:18.031Z,91.62
2023-01-28T21:29:52.696Z,91.62
2023-01-28T21:32:26.645Z,93.21
2023-01-28T21:35:00.917Z,92.68
2023-01-28T21:37:35.386Z,92.26
2023-01-28T21:40:08.328Z,93.45
2023-01-28T21:42:42.628Z,93.33
2023-01-28T21:45:14.320Z,92.33
2023-01-28T21:47:47.402Z,92.70
2023-01-28T21:50:19.545Z,92.90
2023-01-28T21:52:55.947Z,93.07
2023-01-28T21:55:28.833Z,91.38
2023-01-28T21:57:59.790Z,91.38
2023-01-28T22:00:30.270Z,92.19
2023-01-28T22:03:01.232Z,92.19
2023-01-28T22:05:32.797Z,92.63
2023-01-28T22:08:03.243Z,92.63
2023-01-28T22:10:35.482Z,92.91
2023-01-28T22:13:06.046Z,91.54
2023-01-28T22:15:36.614Z,91.63
2023-01-28T22:18:07.569Z,91.21
2023-01-28T22:20:38.008Z,91.21
2023-01-28T22:23:08.416Z,91.53
2023-01-28T22:25:38.843Z,92.60
2023-01-28T22:28:09.405Z,94.15
2023-01-28T22:30:39.813Z,92.13
2023-01-28T22:33:10.282Z,92.43
2023-01-28T22:35:40.772Z,92.38
2023-01-28T22:38:11.629Z,92.38
2023-01-28T22:40:42.242Z,91.54
2023-01-28T22:43:12.858Z,92.90
2023-01-28T22:45:43.786Z,92.90
2023-01-28T22:48:14.144Z,92.16
2023-01-28T22:50:45.159Z,90.65
2023-01-28T22:53:24.534Z,89.15
2023-01-28T22:56:00.381Z,90.38
2023-01-28T22:58:38.200Z,90.38
